createdAt,value
2023-05-02T00:01:33.378Z,98314.84
2023-05-02T00:04:02.893Z,98308.00
2023-05-02T00:06:33.266Z,98316.03
2023-05-02T00:09:04.185Z,98312.00
2023-05-02T00:11:34.262Z,98309.38
2023-05-02T00:14:03.690Z,98307.53
2023-05-02T00:16:33.661Z,98308.28
2023-05-02T00:19:04.113Z,98307.81
2023-05-02T00:21:34.969Z,98309.81
2023-05-02T00:24:06.149Z,98299.63
2023-05-02T00:26:36.159Z,98312.44
2023-05-02T00:29:06.536Z,98314.22
2023-05-02T00:31:36.210Z,98310.00
2023-05-02T00:34:06.298Z,98306.56
2023-05-02T00:36:36.301Z,98312.34
2023-05-02T00:39:06.620Z,98316.13
2023-05-02T00:41:36.515Z,98319.28
2023-05-02T00:44:07.201Z,98310.34
2023-05-02T00:46:36.475Z,98311.44
2023-05-02T00:49:05.940Z,98306.38
2023-05-02T00:51:36.288Z,98309.63
2023-05-02T00:54:07.777Z,98310.97
2023-05-02T00:56:38.903Z,98315.75
2023-05-02T00:59:10.241Z,98323.41
2023-05-02T01:01:51.910Z,98314.56
2023-05-02T01:04:40.337Z,98322.31
2023-05-02T01:07:38.484Z,98318.44
2023-05-02T01:10:24.896Z,98319.69
2023-05-02T01:13:04.519Z,98322.84
2023-05-02T01:15:39.919Z,98325.66
2023-05-02T01:18:14.024Z,98331.69
2023-05-02T01:20:46.102Z,98331.22
2023-05-02T01:23:31.267Z,98326.31
2023-05-02T01:26:21.016Z,98332.59
2023-05-02T01:29:03.971Z,98335.41
2023-05-02T01:31:38.930Z,98334.59
2023-05-02T01:34:14.103Z,98335.28
2023-05-02T01:36:47.236Z,98332.50
2023-05-02T01:39:22.542Z,98339.69
2023-05-02T01:41:54.261Z,98347.06
2023-05-02T01:44:27.403Z,98342.38
2023-05-02T01:47:00.152Z,98344.41
2023-05-02T01:49:32.985Z,98344.75
2023-05-02T01:52:11.661Z,98354.69
2023-05-02T01:54:43.103Z,98363.50
2023-05-02T01:57:14.119Z,98362.53
2023-05-02T01:59:48.503Z,98366.75
2023-05-02T02:02:18.839Z,98371.97
2023-05-02T02:04:51.152Z,98371.69
2023-05-02T02:07:21.659Z,98373.84
2023-05-02T02:09:50.969Z,98382.19
2023-05-02T02:12:28.668Z,98382.53
2023-05-02T02:15:11.687Z,98375.50
2023-05-02T02:17:49.530Z,98382.53
2023-05-02T02:20:20.946Z,98387.44
2023-05-02T02:22:51.435Z,98390.06
2023-05-02T02:25:21.389Z,98389.41
2023-05-02T02:27:51.717Z,98402.13
2023-05-02T02:30:22.010Z,98400.22
2023-05-02T02:32:52.870Z,98399.75
2023-05-02T02:35:23.374Z,98395.50
2023-05-02T02:38:05.660Z,98400.72
2023-05-02T02:40:46.138Z,98405.13
2023-05-02T02:43:35.335Z,98408.72
2023-05-02T02:46:34.300Z,98413.28
2023-05-02T02:49:24.065Z,98425.72
2023-05-02T02:52:03.879Z,98427.00
2023-05-02T02:54:45.296Z,98427.97
2023-05-02T02:57:21.126Z,98427.50
2023-05-02T03:00:03.622Z,98427.66
2023-05-02T03:02:36.703Z,98438.09
2023-05-02T03:05:11.520Z,98434.03
2023-05-02T03:07:42.629Z,98432.06
2023-05-02T03:10:12.495Z,98440.09
2023-05-02T03:12:42.078Z,98433.41
2023-05-02T03:15:31.296Z,98442.72
2023-05-02T03:18:03.373Z,98441.25
2023-05-02T03:20:33.272Z,98430.47
2023-05-02T03:23:02.333Z,98434.88
2023-05-02T03:25:31.734Z,98445.31
2023-05-02T03:28:01.672Z,98440.44
2023-05-02T03:30:30.751Z,98448.28
2023-05-02T03:33:02.361Z,98451.38
2023-05-02T03:35:31.753Z,98446.97
2023-05-02T03:38:02.294Z,98450.88
2023-05-02T03:40:32.233Z,98446.97
2023-05-02T03:43:03.180Z,98455.81
2023-05-02T03:45:32.535Z,98459.53
2023-05-02T03:48:04.678Z,98464.28
2023-05-02T03:50:34.222Z,98471.13
2023-05-02T03:53:03.782Z,98475.06
2023-05-02T03:55:33.754Z,98475.25
2023-05-02T03:58:03.255Z,98468.53
2023-05-02T04:00:35.180Z,98479.16
2023-05-02T04:03:06.084Z,98473.28
2023-05-02T04:05:36.461Z,98481.28
2023-05-02T04:08:07.642Z,98473.47
2023-05-02T04:10:38.177Z,98475.25
2023-05-02T04:13:08.575Z,98474.78
2023-05-02T04:15:37.146Z,98471.84
2023-05-02T04:18:08.698Z,98475.09
2023-05-02T04:20:38.830Z,98481.63
2023-05-02T04:23:08.813Z,98483.28
2023-05-02T04:25:39.370Z,98488.16
2023-05-02T04:28:09.902Z,98485.25
2023-05-02T04:30:40.088Z,98487.66
2023-05-02T04:33:12.563Z,98488.47
2023-05-02T04:35:43.976Z,98488.47
2023-05-02T04:38:14.000Z,98492.25
2023-05-02T04:40:44.380Z,98492.41
2023-05-02T04:43:15.568Z,98497.63
2023-05-02T04:45:45.199Z,98503.97
2023-05-02T04:48:16.190Z,98508.38
2023-05-02T04:50:47.469Z,98517.16
2023-05-02T04:53:16.476Z,98518.81
2023-05-02T04:55:46.064Z,98532.19
2023-05-02T04:58:16.077Z,98537.41
2023-05-02T05:00:45.042Z,98534.59
2023-05-02T05:03:16.010Z,98534.59
2023-05-02T05:05:44.985Z,98536.06
2023-05-02T05:08:14.518Z,98542.59
2023-05-02T05:10:45.009Z,98544.22
2023-05-02T05:13:14.155Z,98544.22
2023-05-02T05:15:44.601Z,98548.28
2023-05-02T05:18:16.093Z,98548.97
2023-05-02T05:20:46.611Z,98556.59
2023-05-02T05:23:16.737Z,98558.72
2023-05-02T05:25:47.249Z,98562.16
2023-05-02T05:28:19.096Z,98569.97
2023-05-02T05:30:48.947Z,98567.69
2023-05-02T05:33:20.918Z,98572.75
2023-05-02T05:35:50.275Z,98574.88
2023-05-02T05:38:20.413Z,98578.75
2023-05-02T05:40:52.435Z,98580.06
2023-05-02T05:43:22.581Z,98586.25
2023-05-02T05:45:54.417Z,98589.19
2023-05-02T05:48:25.559Z,98594.06
2023-05-02T05:50:54.955Z,98584.94
2023-05-02T05:53:23.993Z,98580.00
2023-05-02T05:55:53.410Z,98594.03
2023-05-02T05:58:22.848Z,98591.56
2023-05-02T06:00:52.919Z,98595.94
2023-05-02T06:03:24.812Z,98596.91
2023-05-02T06:05:55.374Z,98596.22
2023-05-02T06:08:25.478Z,98598.81
2023-05-02T06:10:55.528Z,98599.16
2023-05-02T06:13:25.543Z,98601.06
2023-05-02T06:15:56.585Z,98612.47
2023-05-02T06:18:28.486Z,98608.22
2023-05-02T06:20:59.071Z,98614.41
2023-05-02T06:23:30.066Z,98616.81
2023-05-02T06:26:02.482Z,98619.38
2023-05-02T06:28:32.934Z,98614.91
2023-05-02T06:31:04.308Z,98627.94
2023-05-02T06:33:35.945Z,98626.91
2023-05-02T06:36:07.258Z,98632.09
2023-05-02T06:38:37.225Z,98628.78
2023-05-02T06:41:06.843Z,98627.09
2023-05-02T06:43:37.176Z,98638.47
2023-05-02T06:46:07.842Z,98635.16
2023-05-02T06:48:39.815Z,98640.50
2023-05-02T06:51:09.644Z,98643.25
2023-05-02T06:53:39.631Z,98646.78
2023-05-02T06:56:10.217Z,98658.16
2023-05-02T06:58:40.174Z,98650.44
2023-05-02T07:01:09.651Z,98655.13
2023-05-02T07:03:42.083Z,98659.22
2023-05-02T07:06:11.492Z,98657.03
2023-05-02T07:08:41.047Z,98664.22
2023-05-02T07:11:09.934Z,98661.84
2023-05-02T07:13:39.404Z,98666.56
2023-05-02T07:16:10.570Z,98665.03
2023-05-02T07:18:42.973Z,98670.59
2023-05-02T07:21:12.931Z,98659.75
2023-05-02T07:23:42.390Z,98664.63
2023-05-02T07:26:12.891Z,98660.97
2023-05-02T07:28:43.367Z,98671.69
2023-05-02T07:31:12.231Z,98674.59
2023-05-02T07:33:43.703Z,98682.72
2023-05-02T07:36:13.732Z,98675.78
2023-05-02T07:38:44.790Z,98684.53
2023-05-02T07:41:16.324Z,98677.31
2023-05-02T07:43:45.776Z,98674.94
2023-05-02T07:46:15.190Z,98678.03
2023-05-02T07:48:46.820Z,98680.13
2023-05-02T07:51:16.372Z,98687.63
2023-05-02T07:53:47.363Z,98674.13
2023-05-02T07:56:17.391Z,98680.28
2023-05-02T07:58:47.356Z,98682.72
2023-05-02T08:01:18.309Z,98689.22
2023-05-02T08:03:49.982Z,98691.47
2023-05-02T08:06:19.893Z,98697.81
2023-05-02T08:08:49.314Z,98689.56
2023-05-02T08:11:18.792Z,98695.63
2023-05-02T08:13:48.788Z,98699.88
2023-05-02T08:16:18.596Z,98702.59
2023-05-02T08:18:49.654Z,98709.88
2023-05-02T08:21:20.362Z,98710.97
2023-05-02T08:23:50.854Z,98723.72
2023-05-02T08:26:22.479Z,98719.91
2023-05-02T08:28:52.905Z,98718.28
2023-05-02T08:31:22.482Z,98727.63
2023-05-02T08:33:53.858Z,98727.63
2023-05-02T08:36:24.333Z,98730.84
2023-05-02T08:38:54.759Z,98737.53
2023-05-02T08:41:25.741Z,98738.34
2023-05-02T08:43:56.556Z,98742.91
2023-05-02T08:46:27.718Z,98733.63
2023-05-02T08:49:01.205Z,98732.84
2023-05-02T08:51:33.661Z,98737.50
2023-05-02T08:54:06.060Z,98737.00
2023-05-02T08:56:36.564Z,98735.44
2023-05-02T08:59:06.634Z,98729.78
2023-05-02T09:01:37.576Z,98741.56
2023-05-02T09:04:08.432Z,98738.38
2023-05-02T09:06:39.850Z,98736.44
2023-05-02T09:09:08.453Z,98745.56
2023-05-02T09:11:38.432Z,98745.84
2023-05-02T09:14:19.110Z,98749.91
2023-05-02T09:16:50.074Z,98750.97
2023-05-02T09:19:28.994Z,98754.47
2023-05-02T09:22:03.469Z,98754.47
2023-05-02T09:24:33.613Z,98757.34
2023-05-02T09:27:05.424Z,98756.13
2023-05-02T09:29:38.038Z,98754.19
2023-05-02T09:32:08.073Z,98753.66
2023-05-02T09:34:39.915Z,98761.16
2023-05-02T09:37:13.209Z,98761.97
2023-05-02T09:39:43.755Z,98763.56
2023-05-02T09:42:13.270Z,98770.91
2023-05-02T09:44:44.478Z,98768.31
2023-05-02T09:47:28.528Z,98768.75
2023-05-02T09:49:59.967Z,98774.06
2023-05-02T09:52:30.425Z,98773.28
2023-05-02T09:55:00.608Z,98765.66
2023-05-02T09:57:42.861Z,98777.41
2023-05-02T10:00:20.082Z,98772.38
2023-05-02T10:02:52.233Z,98774.81
2023-05-02T10:05:24.956Z,98765.53
2023-05-02T10:07:58.368Z,98775.31
2023-05-02T10:10:28.719Z,98768.25
2023-05-02T10:12:58.726Z,98767.84
2023-05-02T10:15:32.563Z,98772.97
2023-05-02T10:18:05.101Z,98767.91
2023-05-02T10:20:44.942Z,98772.22
2023-05-02T10:23:18.036Z,98771.00
2023-05-02T10:25:48.933Z,98770.84
2023-05-02T10:28:18.622Z,98778.97
2023-05-02T10:30:50.547Z,98770.84
2023-05-02T10:33:20.863Z,98772.25
2023-05-02T10:35:52.141Z,98772.09
2023-05-02T10:38:24.722Z,98768.28
2023-05-02T10:41:01.352Z,98770.53
2023-05-02T10:43:38.471Z,98770.56
2023-05-02T10:46:32.760Z,98765.53
2023-05-02T10:49:08.640Z,98758.03
2023-05-02T10:51:42.691Z,98752.75
2023-05-02T10:54:22.609Z,98764.94
2023-05-02T10:57:28.136Z,98760.50
2023-05-02T11:00:17.036Z,98767.75
2023-05-02T11:02:51.685Z,98760.66
2023-05-02T11:05:21.298Z,98770.78
2023-05-02T11:07:52.379Z,98770.56
2023-05-02T11:10:29.928Z,98769.13
2023-05-02T11:13:01.924Z,98770.75
2023-05-02T11:15:57.853Z,98776.19
2023-05-02T11:18:28.461Z,98768.69
2023-05-02T11:21:30.352Z,98763.84
2023-05-02T11:24:49.805Z,98756.38
2023-05-02T11:27:44.557Z,98759.03
2023-05-02T11:30:15.987Z,98746.91
2023-05-02T11:33:17.841Z,98747.13
2023-05-02T11:35:51.212Z,98733.34
2023-05-02T11:38:23.238Z,98733.13
2023-05-02T11:40:56.597Z,98720.16
2023-05-02T11:43:29.961Z,98729.50
2023-05-02T11:46:02.183Z,98724.22
2023-05-02T11:48:33.151Z,98727.09
2023-05-02T11:51:07.361Z,98721.41
2023-05-02T11:53:43.662Z,98731.13
2023-05-02T11:56:15.601Z,98731.53
2023-05-02T11:58:46.988Z,98726.88
2023-05-02T12:01:17.705Z,98726.88
2023-05-02T12:03:48.990Z,98728.53
2023-05-02T12:06:20.788Z,98736.44
2023-05-02T12:08:55.560Z,98728.75
2023-05-02T12:11:27.028Z,98736.50
2023-05-02T12:13:57.665Z,98735.25
2023-05-02T12:16:29.018Z,98732.03
2023-05-02T12:18:59.622Z,98731.63
2023-05-02T12:21:30.974Z,98732.22
2023-05-02T12:24:01.016Z,98738.50
2023-05-02T12:26:33.780Z,98733.03
2023-05-02T12:29:03.794Z,98736.47
2023-05-02T12:31:33.281Z,98743.34
2023-05-02T12:34:02.145Z,98744.00
2023-05-02T12:36:31.668Z,98743.75
2023-05-02T12:39:02.224Z,98742.56
2023-05-02T12:41:37.773Z,98749.66
2023-05-02T12:44:08.146Z,98753.94
2023-05-02T12:46:38.152Z,98752.28
2023-05-02T12:49:09.635Z,98764.06
2023-05-02T12:51:41.312Z,98761.44
2023-05-02T12:54:21.508Z,98774.63
2023-05-02T12:56:53.440Z,98761.81
2023-05-02T12:59:31.124Z,98763.66
2023-05-02T13:02:02.477Z,98764.06
2023-05-02T13:04:40.795Z,98752.50
2023-05-02T13:07:11.806Z,98748.25
2023-05-02T13:09:41.193Z,98748.63
2023-05-02T13:12:13.723Z,98746.97
2023-05-02T13:14:43.635Z,98738.25
2023-05-02T13:17:12.894Z,98740.25
2023-05-02T13:20:00.992Z,98753.47
2023-05-02T13:22:32.020Z,98755.09
2023-05-02T13:25:01.315Z,98737.47
2023-05-02T13:27:32.277Z,98743.34
2023-05-02T13:30:04.186Z,98742.53
2023-05-02T13:32:36.735Z,98739.28
2023-05-02T13:35:06.617Z,98739.47
2023-05-02T13:37:36.228Z,98738.47
2023-05-02T13:40:06.008Z,98741.50
2023-05-02T13:42:37.450Z,98738.00
2023-05-02T13:45:10.293Z,98727.63
2023-05-02T13:47:39.542Z,98736.97
2023-05-02T13:50:13.130Z,98733.84
2023-05-02T13:52:43.168Z,98737.22
2023-05-02T13:55:13.313Z,98728.00
2023-05-02T13:57:44.166Z,98737.25
2023-05-02T14:00:16.274Z,98729.91
2023-05-02T14:02:46.963Z,98736.25
2023-05-02T14:05:16.038Z,98729.25
2023-05-02T14:07:47.119Z,98733.94
2023-05-02T14:10:17.120Z,98714.38
2023-05-02T14:12:48.660Z,98736.09
2023-05-02T14:15:19.176Z,98725.72
2023-05-02T14:17:49.131Z,98723.88
2023-05-02T14:20:18.873Z,98723.56
2023-05-02T14:22:49.411Z,98731.84
2023-05-02T14:25:21.160Z,98727.16
2023-05-02T14:27:53.068Z,98736.66
2023-05-02T14:30:23.411Z,98730.63
2023-05-02T14:32:54.683Z,98730.53
2023-05-02T14:35:26.452Z,98736.28
2023-05-02T14:37:56.023Z,98728.19
2023-05-02T14:40:25.003Z,98734.03
2023-05-02T14:42:55.705Z,98755.59
2023-05-02T14:45:25.337Z,98750.22
2023-05-02T14:47:56.607Z,98749.50
2023-05-02T14:50:26.998Z,98751.97
2023-05-02T14:52:57.626Z,98756.78
2023-05-02T14:55:27.141Z,98751.16
2023-05-02T14:57:59.535Z,98749.03
2023-05-02T15:00:28.949Z,98758.75
2023-05-02T15:02:58.394Z,98740.44
2023-05-02T15:05:29.459Z,98746.22
2023-05-02T15:07:59.612Z,98749.41
2023-05-02T15:10:29.192Z,98754.56
2023-05-02T15:13:01.669Z,98750.59
2023-05-02T15:15:31.774Z,98743.94
2023-05-02T15:18:01.990Z,98743.78
2023-05-02T15:20:31.383Z,98756.72
2023-05-02T15:23:03.628Z,98748.19
2023-05-02T15:25:34.402Z,98748.31
2023-05-02T15:28:06.307Z,98752.16
2023-05-02T15:30:36.063Z,98755.47
2023-05-02T15:33:05.748Z,98747.69
2023-05-02T15:35:35.818Z,98752.63
2023-05-02T15:38:04.781Z,98752.78
2023-05-02T15:40:34.063Z,98760.56
2023-05-02T15:43:05.973Z,98770.91
2023-05-02T15:45:36.822Z,98763.41
2023-05-02T15:48:06.091Z,98770.53
2023-05-02T15:50:35.363Z,98761.03
2023-05-02T15:53:04.845Z,98776.66
2023-05-02T15:55:35.981Z,98753.78
2023-05-02T15:58:06.262Z,98759.59
2023-05-02T16:00:35.675Z,98771.50
2023-05-02T16:03:05.391Z,98775.31
2023-05-02T16:05:35.131Z,98785.31
2023-05-02T16:08:04.303Z,98790.06
2023-05-02T16:10:33.989Z,98796.22
2023-05-02T16:13:03.379Z,98791.19
2023-05-02T16:15:33.218Z,98797.94
2023-05-02T16:18:02.696Z,98786.19
2023-05-02T16:20:34.547Z,98784.13
2023-05-02T16:23:05.375Z,98789.84
2023-05-02T16:25:35.686Z,98793.34
2023-05-02T16:28:05.719Z,98787.44
2023-05-02T16:30:38.999Z,98796.44
2023-05-02T16:33:08.248Z,98792.78
2023-05-02T16:35:38.111Z,98794.41
2023-05-02T16:38:07.800Z,98798.25
2023-05-02T16:40:37.706Z,98805.19
2023-05-02T16:43:09.460Z,98803.59
2023-05-02T16:45:40.354Z,98812.31
2023-05-02T16:48:09.661Z,98807.25
2023-05-02T16:50:39.093Z,98808.28
2023-05-02T16:53:08.656Z,98812.56
2023-05-02T16:55:39.703Z,98814.44
2023-05-02T16:58:09.027Z,98814.03
2023-05-02T17:00:40.985Z,98821.63
2023-05-02T17:03:10.488Z,98816.38
2023-05-02T17:05:39.494Z,98825.34
2023-05-02T17:08:09.856Z,98828.06
2023-05-02T17:10:40.404Z,98827.47
2023-05-02T17:13:09.921Z,98825.44
2023-05-02T17:15:40.690Z,98840.34
2023-05-02T17:18:10.244Z,98835.88
2023-05-02T17:20:39.931Z,98835.69
2023-05-02T17:23:09.856Z,98846.03
2023-05-02T17:25:40.380Z,98844.44
2023-05-02T17:28:09.915Z,98854.19
2023-05-02T17:30:41.390Z,98846.88
2023-05-02T17:33:11.749Z,98848.91
2023-05-02T17:35:40.700Z,98846.88
2023-05-02T17:38:10.713Z,98846.47
2023-05-02T17:40:39.091Z,98848.09
2023-05-02T17:43:08.618Z,98847.69
2023-05-02T17:45:40.146Z,98855.78
2023-05-02T17:48:11.343Z,98862.66
2023-05-02T17:50:41.179Z,98867.53
2023-05-02T17:53:10.674Z,98876.44
2023-05-02T17:55:40.744Z,98883.69
2023-05-02T17:58:10.068Z,98884.50
2023-05-02T18:00:40.436Z,98883.03
2023-05-02T18:03:11.348Z,98891.72
2023-05-02T18:05:41.168Z,98898.19
2023-05-02T18:08:10.594Z,98894.91
2023-05-02T18:10:41.179Z,98891.25
2023-05-02T18:13:10.486Z,98897.53
2023-05-02T18:15:39.992Z,98901.19
2023-05-02T18:18:11.540Z,98901.13
2023-05-02T18:20:40.996Z,98906.56
2023-05-02T18:23:09.897Z,98903.34
2023-05-02T18:25:39.247Z,98915.25
2023-05-02T18:28:08.231Z,98915.00
2023-05-02T18:30:39.099Z,98916.00
2023-05-02T18:33:10.084Z,98922.63
2023-05-02T18:35:39.045Z,98924.19
2023-05-02T18:38:09.133Z,98932.03
2023-05-02T18:40:39.177Z,98934.63
2023-05-02T18:43:08.622Z,98941.78
2023-05-02T18:45:39.893Z,98945.59
2023-05-02T18:48:10.412Z,98940.53
2023-05-02T18:50:40.994Z,98944.56
2023-05-02T18:53:10.195Z,98949.44
2023-05-02T18:55:40.282Z,98942.91
2023-05-02T18:58:10.214Z,98942.09
2023-05-02T19:00:40.148Z,98947.91
2023-05-02T19:03:11.146Z,98952.03
2023-05-02T19:05:42.835Z,98949.97
2023-05-02T19:08:12.030Z,98954.16
2023-05-02T19:10:41.451Z,98953.09
2023-05-02T19:13:10.975Z,98959.28
2023-05-02T19:15:40.066Z,98954.22
2023-05-02T19:18:11.014Z,98961.41
2023-05-02T19:20:41.959Z,98965.03
2023-05-02T19:23:18.892Z,98966.59
2023-05-02T19:25:50.070Z,98973.13
2023-05-02T19:28:20.401Z,98974.88
2023-05-02T19:30:49.305Z,98974.50
2023-05-02T19:33:20.919Z,98979.03
2023-05-02T19:35:49.899Z,98980.75
2023-05-02T19:38:19.501Z,98986.56
2023-05-02T19:40:49.998Z,98989.81
2023-05-02T19:43:19.441Z,98997.06
2023-05-02T19:45:49.063Z,99007.34
2023-05-02T19:48:19.462Z,99008.84
2023-05-02T19:50:47.864Z,99017.91
2023-05-02T19:53:19.116Z,99017.00
2023-05-02T19:55:49.604Z,99022.03
2023-05-02T19:58:20.197Z,99020.00
2023-05-02T20:00:50.257Z,99018.53
2023-05-02T20:03:22.312Z,99022.34
2023-05-02T20:05:51.404Z,99033.19
2023-05-02T20:08:22.862Z,99032.53
2023-05-02T20:10:52.860Z,99024.50
2023-05-02T20:13:21.964Z,99022.47
2023-05-02T20:15:53.239Z,99031.16
2023-05-02T20:18:23.679Z,99035.00
2023-05-02T20:20:53.053Z,99033.38
2023-05-02T20:23:23.180Z,99035.88
2023-05-02T20:25:53.741Z,99039.19
2023-05-02T20:28:23.490Z,99042.16
2023-05-02T20:30:52.536Z,99038.75
2023-05-02T20:33:27.518Z,99050.56
2023-05-02T20:36:00.708Z,99044.69
2023-05-02T20:38:30.674Z,99048.78
2023-05-02T20:41:00.190Z,99046.91
2023-05-02T20:43:29.629Z,99050.50
2023-05-02T20:45:59.641Z,99051.38
2023-05-02T20:48:31.860Z,99046.47
2023-05-02T20:51:02.583Z,99042.84
2023-05-02T20:53:32.099Z,99057.09
2023-05-02T20:56:01.540Z,99045.00
2023-05-02T20:58:31.454Z,99048.63
2023-05-02T21:01:01.498Z,99052.25
2023-05-02T21:03:37.196Z,99054.53
2023-05-02T21:06:07.484Z,99048.66
2023-05-02T21:08:37.065Z,99052.75
2023-05-02T21:11:15.203Z,99055.03
2023-05-02T21:13:46.176Z,99053.25
2023-05-02T21:16:20.170Z,99067.31
2023-05-02T21:18:51.072Z,99063.06
2023-05-02T21:21:20.474Z,99067.97
2023-05-02T21:23:51.058Z,99073.72
2023-05-02T21:26:19.787Z,99073.38
2023-05-02T21:28:48.223Z,99075.66
2023-05-02T21:31:17.733Z,99073.22
2023-05-02T21:33:47.558Z,99067.81
2023-05-02T21:36:18.968Z,99073.84
2023-05-02T21:38:50.981Z,99066.34
2023-05-02T21:41:20.564Z,99064.19
2023-05-02T21:43:49.495Z,99060.28
2023-05-02T21:46:18.445Z,99068.59
2023-05-02T21:48:47.877Z,99071.13
2023-05-02T21:51:18.893Z,99064.97
2023-05-02T21:53:48.280Z,99071.66
2023-05-02T21:56:18.669Z,99067.22
2023-05-02T21:58:49.690Z,99062.66
2023-05-02T22:01:19.683Z,99070.13
2023-05-02T22:03:49.827Z,99068.63
2023-05-02T22:06:20.898Z,99070.69
2023-05-02T22:08:51.494Z,99071.19
2023-05-02T22:11:22.383Z,99075.91
2023-05-02T22:13:52.956Z,99074.28
2023-05-02T22:16:22.944Z,99065.78
2023-05-02T22:18:52.516Z,99067.91
2023-05-02T22:21:23.431Z,99073.59
2023-05-02T22:23:51.830Z,99077.78
2023-05-02T22:26:21.282Z,99070.31
2023-05-02T22:28:50.985Z,99074.88
2023-05-02T22:31:21.544Z,99074.53
2023-05-02T22:33:50.684Z,99076.63
2023-05-02T22:36:22.044Z,99077.59
2023-05-02T22:38:52.477Z,99087.16
2023-05-02T22:41:20.934Z,99094.19
2023-05-02T22:43:51.006Z,99097.28
2023-05-02T22:46:21.218Z,99096.06
2023-05-02T22:48:53.075Z,99099.81
2023-05-02T22:51:24.075Z,99098.66
2023-05-02T22:53:54.734Z,99098.81
2023-05-02T22:56:25.581Z,99102.09
2023-05-02T22:58:56.246Z,99115.06
2023-05-02T23:01:27.000Z,99108.53
2023-05-02T23:03:58.238Z,99111.22
2023-05-02T23:06:29.796Z,99112.56
2023-05-02T23:08:59.925Z,99108.66
2023-05-02T23:11:29.217Z,99111.28
2023-05-02T23:14:00.291Z,99114.44
2023-05-02T23:16:30.360Z,99116.69
2023-05-02T23:18:59.928Z,99114.50
2023-05-02T23:21:30.877Z,99115.13
2023-05-02T23:24:01.871Z,99110.22
2023-05-02T23:26:32.955Z,99110.53
2023-05-02T23:29:03.135Z,99112.31
2023-05-02T23:31:33.553Z,99108.88
2023-05-02T23:34:05.096Z,99108.03
2023-05-02T23:36:37.559Z,99115.34
2023-05-02T23:39:06.501Z,99109.03
2023-05-02T23:41:36.099Z,99113.66
2023-05-02T23:44:06.188Z,99109.56
2023-05-02T23:46:35.802Z,99109.03
2023-05-02T23:49:05.407Z,99108.81
2023-05-02T23:51:38.324Z,99107.75
2023-05-02T23:54:07.968Z,99120.53
2023-05-02T23:56:38.348Z,99115.09
2023-05-02T23:59:08.960Z,99107.44
